createdAt,value
2022-10-23T00:00:32.144Z,19.30
2022-10-23T00:03:34.361Z,21.10
2022-10-23T00:06:21.499Z,22.90
2022-10-23T00:09:12.017Z,17.90
2022-10-23T00:11:58.412Z,17.50
2022-10-23T00:14:44.845Z,21.30
2022-10-23T00:17:32.216Z,20.00
2022-10-23T00:20:18.658Z,19.20
2022-10-23T00:23:05.196Z,21.90
2022-10-23T00:25:51.595Z,25.60
2022-10-23T00:28:37.970Z,20.60
2022-10-23T00:31:25.283Z,18.60
2022-10-23T00:34:11.712Z,21.60
2022-10-23T00:36:58.088Z,22.40
2022-10-23T00:39:44.665Z,23.80
2022-10-23T00:42:31.362Z,21.40
2022-10-23T00:45:26.984Z,20.20
2022-10-23T00:48:13.779Z,22.50
2022-10-23T00:50:59.939Z,22.50
2022-10-23T00:54:00.988Z,23.40
2022-10-23T00:57:01.225Z,27.40
2022-10-23T00:59:47.912Z,24.80
2022-10-23T01:02:34.919Z,26.40
2022-10-23T01:05:29.846Z,21.60
2022-10-23T01:08:37.159Z,20.80
2022-10-23T01:11:41.328Z,24.40
2022-10-23T01:14:42.491Z,20.40
2022-10-23T01:17:51.771Z,24.60
2022-10-23T01:20:54.870Z,25.50
2022-10-23T01:24:10.300Z,20.40
2022-10-23T01:27:23.375Z,23.00
2022-10-23T01:30:16.227Z,23.80
2022-10-23T01:33:12.378Z,22.40
2022-10-23T01:36:11.878Z,20.80
2022-10-23T01:39:11.850Z,23.80
2022-10-23T01:42:15.974Z,24.50
2022-10-23T01:45:38.601Z,23.40
2022-10-23T01:48:30.451Z,30.00
2022-10-23T01:51:19.099Z,29.70
2022-10-23T01:54:11.008Z,25.80
2022-10-23T01:56:58.799Z,30.60
2022-10-23T01:59:57.559Z,29.50
2022-10-23T02:02:46.535Z,30.40
2022-10-23T02:05:33.596Z,31.30
2022-10-23T02:08:21.270Z,27.40
2022-10-23T02:11:14.763Z,33.60
2022-10-23T02:14:20.015Z,37.70
2022-10-23T02:17:35.459Z,31.50
2022-10-23T02:20:27.594Z,32.60
2022-10-23T02:23:32.627Z,27.80
2022-10-23T02:26:48.550Z,34.10
2022-10-23T02:29:42.722Z,32.40
2022-10-23T02:32:29.858Z,35.00
2022-10-23T02:35:18.980Z,30.60
2022-10-23T02:38:31.276Z,33.40
2022-10-23T02:41:22.854Z,30.80
2022-10-23T02:44:39.741Z,36.70
2022-10-23T02:48:09.203Z,31.00
2022-10-23T02:51:17.540Z,35.60
2022-10-23T02:54:18.498Z,34.50
2022-10-23T02:57:53.448Z,33.20
2022-10-23T03:00:48.965Z,32.60
2022-10-23T03:03:42.099Z,37.40
2022-10-23T03:06:28.474Z,30.40
2022-10-23T03:09:16.358Z,29.20
2022-10-23T03:12:03.160Z,29.70
2022-10-23T03:14:52.013Z,34.10
2022-10-23T03:17:39.110Z,32.70
2022-10-23T03:20:25.561Z,30.20
2022-10-23T03:23:13.374Z,30.10
2022-10-23T03:26:00.098Z,32.50
2022-10-23T03:28:55.091Z,29.10
2022-10-23T03:31:42.539Z,29.00
2022-10-23T03:34:31.626Z,28.40
2022-10-23T03:37:17.712Z,29.90
2022-10-23T03:40:04.944Z,30.20
2022-10-23T03:42:53.427Z,31.80
2022-10-23T03:45:39.667Z,27.90
2022-10-23T03:48:26.111Z,25.90
2022-10-23T03:51:17.111Z,26.20
2022-10-23T03:54:03.249Z,29.60
2022-10-23T03:56:53.610Z,30.80
2022-10-23T03:59:42.661Z,27.00
2022-10-23T04:02:29.414Z,26.10
2022-10-23T04:05:15.933Z,27.20
2022-10-23T04:08:07.420Z,27.20
2022-10-23T04:10:54.510Z,30.00
2022-10-23T04:13:48.784Z,24.90
2022-10-23T04:16:34.870Z,25.10
2022-10-23T04:19:21.490Z,25.30
2022-10-23T04:22:08.295Z,23.40
2022-10-23T04:24:54.794Z,25.50
2022-10-23T04:27:41.221Z,22.90
2022-10-23T04:30:27.910Z,24.40
2022-10-23T04:33:15.107Z,22.90
2022-10-23T04:36:01.156Z,27.20
2022-10-23T04:38:47.676Z,22.50
2022-10-23T04:41:33.959Z,24.90
2022-10-23T04:44:20.128Z,23.10
2022-10-23T04:47:06.682Z,22.80
2022-10-23T04:49:57.878Z,21.10
2022-10-23T04:53:03.176Z,20.10
2022-10-23T04:56:12.814Z,22.30
2022-10-23T04:59:09.163Z,23.80
2022-10-23T05:01:57.865Z,23.80
2022-10-23T05:04:44.177Z,27.40
2022-10-23T05:07:49.267Z,24.80
2022-10-23T05:11:02.483Z,23.50
2022-10-23T05:13:48.767Z,26.70
2022-10-23T05:16:51.627Z,23.90
2022-10-23T05:19:45.496Z,25.60
2022-10-23T05:22:36.868Z,28.90
2022-10-23T05:25:25.540Z,28.70
2022-10-23T05:28:20.086Z,27.90
2022-10-23T05:31:06.660Z,28.40
2022-10-23T05:33:56.218Z,28.30
2022-10-23T05:36:42.895Z,28.90
2022-10-23T05:39:29.369Z,29.10
2022-10-23T05:42:15.798Z,31.70
2022-10-23T05:45:02.572Z,31.40
2022-10-23T05:48:22.099Z,31.00
2022-10-23T05:51:28.056Z,27.20
2022-10-23T05:54:33.093Z,34.10
2022-10-23T05:57:38.101Z,25.60
2022-10-23T06:00:28.604Z,39.10
2022-10-23T06:03:21.699Z,22.80
2022-10-23T06:06:07.918Z,30.00
2022-10-23T06:09:06.247Z,32.40
2022-10-23T06:11:56.845Z,35.00
2022-10-23T06:14:43.085Z,31.30
2022-10-23T06:17:30.277Z,33.40
2022-10-23T06:20:16.565Z,32.40
2022-10-23T06:23:05.727Z,35.70
2022-10-23T06:26:19.159Z,29.40
2022-10-23T06:29:15.723Z,28.10
2022-10-23T06:32:02.615Z,32.00
2022-10-23T06:34:48.768Z,31.00
2022-10-23T06:37:34.992Z,29.20
2022-10-23T06:40:37.399Z,23.10
2022-10-23T06:43:25.699Z,29.30
2022-10-23T06:46:34.358Z,24.40
2022-10-23T06:49:38.192Z,30.00
2022-10-23T06:52:42.070Z,35.20
2022-10-23T06:55:34.186Z,33.20
2022-10-23T06:58:21.867Z,29.10
2022-10-23T07:01:17.732Z,28.20
2022-10-23T07:04:04.700Z,30.30
2022-10-23T07:06:50.931Z,39.10
2022-10-23T07:09:39.758Z,25.80
2022-10-23T07:12:48.381Z,27.70
2022-10-23T07:15:58.170Z,29.60
2022-10-23T07:18:46.024Z,34.30
2022-10-23T07:21:47.942Z,26.60
2022-10-23T07:24:52.925Z,20.90
2022-10-23T07:27:43.870Z,23.50
2022-10-23T07:30:31.375Z,23.50
2022-10-23T07:33:18.356Z,35.20
2022-10-23T07:36:23.533Z,28.50
2022-10-23T07:39:11.409Z,23.80
2022-10-23T07:42:04.185Z,23.20
2022-10-23T07:44:50.545Z,18.20
2022-10-23T07:47:36.792Z,19.40
2022-10-23T07:50:23.429Z,20.20
2022-10-23T07:53:29.846Z,14.90
2022-10-23T07:56:29.391Z,17.10
2022-10-23T07:59:38.025Z,19.50
2022-10-23T08:02:27.786Z,21.00
2022-10-23T08:05:18.178Z,19.60
2022-10-23T08:08:10.174Z,19.80
2022-10-23T08:10:57.106Z,21.80
2022-10-23T08:13:47.361Z,17.40
2022-10-23T08:16:37.084Z,17.60
2022-10-23T08:19:23.729Z,42.80
2022-10-23T08:22:12.764Z,23.60
2022-10-23T08:24:59.316Z,17.30
2022-10-23T08:27:45.965Z,17.20
2022-10-23T08:30:33.202Z,17.90
2022-10-23T08:33:20.260Z,22.00
2022-10-23T08:36:20.252Z,16.20
2022-10-23T08:39:07.161Z,15.30
2022-10-23T08:41:54.427Z,13.60
2022-10-23T08:44:54.585Z,11.30
2022-10-23T08:47:53.851Z,12.60
2022-10-23T08:51:46.518Z,11.70
2022-10-23T08:54:58.572Z,15.10
2022-10-23T08:58:33.908Z,12.00
2022-10-23T09:01:55.333Z,10.80
2022-10-23T09:04:45.039Z,9.40
2022-10-23T09:07:56.904Z,7.60
2022-10-23T09:11:21.333Z,9.60
2022-10-23T09:14:58.695Z,9.30
2022-10-23T09:17:47.336Z,9.20
2022-10-23T09:20:35.655Z,9.20
2022-10-23T09:23:24.002Z,10.30
2022-10-23T09:26:19.546Z,11.10
2022-10-23T09:29:29.110Z,10.50
2022-10-23T09:32:15.269Z,8.60
2022-10-23T09:35:01.540Z,9.30
2022-10-23T09:37:52.490Z,9.40
2022-10-23T09:40:43.049Z,9.90
2022-10-23T09:43:30.079Z,8.50
2022-10-23T09:46:21.416Z,8.20
2022-10-23T09:49:29.517Z,9.70
2022-10-23T09:52:17.152Z,8.40
2022-10-23T09:55:26.088Z,8.90
2022-10-23T09:58:31.995Z,9.10
2022-10-23T10:01:38.326Z,7.90
2022-10-23T10:04:43.564Z,8.80
2022-10-23T10:07:33.333Z,13.20
2022-10-23T10:10:23.483Z,10.70
2022-10-23T10:13:37.662Z,8.10
2022-10-23T10:16:46.565Z,10.30
2022-10-23T10:20:03.723Z,9.20
2022-10-23T10:23:06.725Z,11.00
2022-10-23T10:26:01.387Z,9.50
2022-10-23T10:28:59.360Z,10.30
2022-10-23T10:32:17.642Z,11.10
2022-10-23T10:35:45.422Z,9.30
2022-10-23T10:38:51.103Z,8.60
2022-10-23T10:42:03.242Z,9.20
2022-10-23T10:45:16.987Z,9.30
2022-10-23T10:48:31.847Z,8.90
2022-10-23T10:52:20.892Z,9.80
2022-10-23T10:55:10.523Z,8.00
2022-10-23T10:58:16.077Z,10.90
2022-10-23T11:01:14.405Z,7.20
2022-10-23T11:04:39.709Z,9.10
2022-10-23T11:07:37.816Z,9.00
2022-10-23T11:10:24.257Z,7.20
2022-10-23T11:13:37.248Z,7.80
2022-10-23T11:16:37.959Z,9.30
2022-10-23T11:19:41.567Z,8.30
2022-10-23T11:23:05.972Z,8.10
2022-10-23T11:26:19.942Z,8.80
2022-10-23T11:29:51.209Z,8.80
2022-10-23T11:33:14.144Z,8.10
2022-10-23T11:36:31.947Z,7.30
2022-10-23T11:39:32.605Z,7.70
2022-10-23T11:42:40.984Z,7.80
2022-10-23T11:45:34.719Z,8.60
2022-10-23T11:48:37.033Z,8.90
2022-10-23T11:51:39.355Z,8.10
2022-10-23T11:54:26.813Z,8.20
2022-10-23T11:57:17.037Z,7.00
2022-10-23T12:00:18.314Z,8.40
2022-10-23T12:03:14.209Z,9.40
2022-10-23T12:06:05.264Z,11.50
2022-10-23T12:08:59.501Z,8.50
2022-10-23T12:11:50.828Z,7.90
2022-10-23T12:14:45.006Z,7.90
2022-10-23T12:17:37.479Z,7.40
2022-10-23T12:20:36.069Z,10.20
2022-10-23T12:24:09.579Z,9.10
2022-10-23T12:27:14.121Z,16.10
2022-10-23T12:30:17.371Z,11.70
2022-10-23T12:33:17.789Z,8.90
2022-10-23T12:36:37.968Z,16.80
2022-10-23T12:39:25.205Z,11.40
2022-10-23T12:42:22.943Z,14.10
2022-10-23T12:45:37.839Z,9.10
2022-10-23T12:48:24.962Z,9.50
2022-10-23T12:51:35.715Z,8.10
2022-10-23T12:54:22.410Z,10.20
2022-10-23T12:57:29.688Z,9.30
2022-10-23T13:00:22.669Z,10.40
2022-10-23T13:03:13.584Z,10.50
2022-10-23T13:06:03.724Z,9.90
2022-10-23T13:08:50.500Z,10.70
2022-10-23T13:11:51.475Z,10.10
2022-10-23T13:14:44.418Z,8.80
2022-10-23T13:17:46.834Z,9.70
2022-10-23T13:20:40.989Z,9.80
2022-10-23T13:23:31.617Z,10.20
2022-10-23T13:26:21.065Z,7.50
2022-10-23T13:32:24.635Z,10.10
2022-10-23T13:35:25.548Z,7.40
2022-10-23T13:38:13.104Z,10.00
2022-10-23T13:41:01.916Z,10.70
2022-10-23T13:43:48.564Z,10.70
2022-10-23T13:46:35.301Z,10.90
2022-10-23T13:49:21.716Z,12.80
2022-10-23T13:52:13.851Z,9.60
2022-10-23T13:55:00.342Z,7.60
2022-10-23T13:57:47.045Z,9.00
2022-10-23T14:00:33.861Z,7.80
2022-10-23T14:03:23.785Z,9.00
2022-10-23T14:06:10.677Z,9.50
2022-10-23T14:08:57.285Z,10.80
2022-10-23T14:11:44.211Z,11.10
2022-10-23T14:14:31.304Z,10.90
2022-10-23T14:17:20.874Z,8.00
2022-10-23T14:20:08.193Z,10.80
2022-10-23T14:22:55.511Z,8.60
2022-10-23T14:25:44.347Z,9.00
2022-10-23T14:28:48.718Z,8.30
2022-10-23T14:31:35.498Z,9.40
2022-10-23T14:34:22.488Z,9.30
2022-10-23T14:37:09.437Z,8.80
2022-10-23T14:39:56.130Z,9.50
2022-10-23T14:42:43.412Z,9.10
2022-10-23T14:45:37.551Z,8.90
2022-10-23T14:48:23.704Z,13.30
2022-10-23T14:51:25.260Z,8.90
2022-10-23T14:54:15.265Z,10.60
2022-10-23T14:57:03.461Z,10.30
2022-10-23T14:59:49.884Z,12.10
2022-10-23T15:02:36.287Z,12.00
2022-10-23T15:05:22.757Z,12.40
2022-10-23T15:08:09.956Z,13.60
2022-10-23T15:11:04.232Z,11.70
2022-10-23T15:13:54.235Z,12.80
2022-10-23T15:16:41.826Z,13.80
2022-10-23T15:19:38.387Z,15.40
2022-10-23T15:22:24.458Z,17.60
2022-10-23T15:25:14.249Z,16.60
2022-10-23T15:28:03.426Z,14.60
2022-10-23T15:30:49.671Z,14.40
2022-10-23T15:33:38.330Z,14.40
2022-10-23T15:36:25.682Z,11.30
2022-10-23T15:39:14.859Z,13.30
2022-10-23T15:42:04.090Z,16.70
2022-10-23T15:44:50.941Z,12.80
2022-10-23T15:47:37.361Z,13.00
2022-10-23T15:50:24.311Z,13.00
2022-10-23T15:53:10.855Z,21.20
2022-10-23T15:55:58.348Z,25.90
2022-10-23T15:58:45.496Z,28.00
2022-10-23T16:01:31.912Z,21.50
2022-10-23T16:04:18.311Z,26.30
2022-10-23T16:07:04.576Z,27.50
2022-10-23T16:09:51.322Z,23.50
2022-10-23T16:12:37.717Z,19.90
2022-10-23T16:15:24.297Z,17.00
2022-10-23T16:18:11.420Z,16.80
2022-10-23T16:20:57.845Z,26.10
2022-10-23T16:23:44.861Z,30.30
2022-10-23T16:26:32.605Z,33.80
2022-10-23T16:29:21.609Z,29.90
2022-10-23T16:32:07.878Z,31.30
2022-10-23T16:34:54.470Z,28.30
2022-10-23T16:37:41.629Z,31.10
2022-10-23T16:40:33.738Z,158.50
2022-10-23T16:43:43.382Z,186.30
2022-10-23T16:46:53.881Z,116.70
2022-10-23T16:49:40.541Z,88.60
2022-10-23T16:52:27.678Z,99.30
2022-10-23T16:55:14.744Z,113.80
2022-10-23T16:58:00.910Z,105.20
2022-10-23T17:01:09.140Z,112.70
2022-10-23T17:03:57.369Z,93.70
2022-10-23T17:06:44.281Z,144.90
2022-10-23T17:09:31.442Z,161.40
2022-10-23T17:12:17.977Z,212.30
2022-10-23T17:15:12.425Z,190.00
2022-10-23T17:18:04.205Z,153.30
2022-10-23T17:20:57.102Z,133.20
2022-10-23T17:23:44.887Z,127.40
2022-10-23T17:26:32.387Z,90.10
2022-10-23T17:29:18.876Z,63.80
2022-10-23T17:32:05.773Z,60.80
2022-10-23T17:34:52.682Z,46.30
2022-10-23T17:37:39.809Z,49.90
2022-10-23T17:40:33.466Z,38.30
2022-10-23T17:43:58.870Z,39.60
2022-10-23T17:46:45.728Z,38.10
2022-10-23T17:53:07.496Z,42.10
2022-10-23T18:02:52.601Z,40.40
2022-10-23T18:05:56.848Z,42.20
2022-10-23T18:08:46.250Z,39.70
2022-10-23T18:11:38.324Z,39.00
2022-10-23T18:14:27.342Z,48.40
2022-10-23T18:17:16.407Z,43.80
2022-10-23T18:20:04.634Z,44.90
2022-10-23T18:22:51.140Z,42.30
2022-10-23T18:25:42.958Z,50.60
2022-10-23T18:28:30.056Z,44.80
2022-10-23T18:31:18.381Z,45.60
2022-10-23T18:34:13.154Z,43.90
2022-10-23T18:37:00.461Z,47.60
2022-10-23T18:39:47.190Z,42.40
2022-10-23T18:42:34.173Z,42.70
2022-10-23T18:45:21.557Z,40.60
2022-10-23T18:48:08.230Z,42.50
2022-10-23T18:50:56.180Z,44.20
2022-10-23T18:53:46.140Z,42.70
2022-10-23T18:56:35.104Z,40.10
2022-10-23T18:59:21.553Z,44.70
2022-10-23T19:02:19.444Z,46.70
2022-10-23T19:05:08.394Z,45.40
2022-10-23T19:08:01.774Z,43.60
2022-10-23T19:10:49.932Z,50.00
2022-10-23T19:13:39.235Z,40.40
2022-10-23T19:17:02.375Z,40.90
2022-10-23T19:19:59.418Z,43.20
2022-10-23T19:22:50.643Z,46.20
2022-10-23T19:25:36.988Z,44.40
2022-10-23T19:28:27.321Z,41.80
2022-10-23T19:31:15.049Z,41.00
2022-10-23T19:34:03.667Z,38.40
2022-10-23T19:36:54.633Z,38.50
2022-10-23T19:39:41.163Z,36.20
2022-10-23T19:42:27.718Z,39.60
2022-10-23T19:45:18.463Z,39.30
2022-10-23T19:48:12.759Z,41.50
2022-10-23T19:51:03.167Z,39.00
2022-10-23T19:53:54.319Z,37.50
2022-10-23T19:56:48.139Z,36.80
2022-10-23T19:59:37.395Z,35.40
2022-10-23T20:02:24.155Z,34.90
2022-10-23T20:05:10.909Z,32.40
2022-10-23T20:07:57.885Z,32.60
2022-10-23T20:10:47.683Z,31.40
2022-10-23T20:13:36.735Z,31.30
2022-10-23T20:16:26.776Z,30.70
2022-10-23T20:22:04.005Z,29.70
2022-10-23T20:24:50.274Z,28.60
2022-10-23T20:30:24.137Z,29.10
2022-10-23T20:33:11.243Z,26.10
2022-10-23T20:35:57.894Z,27.50
2022-10-23T20:38:44.730Z,27.50
2022-10-23T20:41:32.733Z,30.10
2022-10-23T20:44:19.741Z,31.00
2022-10-23T20:47:06.249Z,27.70
2022-10-23T20:49:53.303Z,30.70
2022-10-23T20:52:42.949Z,28.60
2022-10-23T20:55:29.637Z,26.30
2022-10-23T20:58:15.914Z,24.00
2022-10-23T21:01:11.658Z,25.20
2022-10-23T21:04:00.774Z,21.70
2022-10-23T21:07:08.758Z,24.90
2022-10-23T21:09:56.113Z,25.30
2022-10-23T21:12:44.734Z,24.80
2022-10-23T21:15:31.457Z,26.00
2022-10-23T21:18:33.675Z,25.50
2022-10-23T21:21:26.870Z,32.20
2022-10-23T21:24:16.058Z,32.30
2022-10-23T21:27:02.533Z,31.40
2022-10-23T21:29:49.095Z,30.50
2022-10-23T21:32:35.574Z,31.80
2022-10-23T21:35:23.444Z,31.30
2022-10-23T21:38:11.668Z,32.50
2022-10-23T21:41:11.794Z,30.30
2022-10-23T21:44:02.944Z,29.10
2022-10-23T21:46:49.820Z,33.80
2022-10-23T21:49:36.588Z,30.70
2022-10-23T21:52:22.947Z,28.30
2022-10-23T21:55:09.925Z,29.70
2022-10-23T21:57:56.562Z,26.60
2022-10-23T22:00:45.286Z,27.50
2022-10-23T22:03:32.029Z,26.00
2022-10-23T22:06:27.269Z,26.50
2022-10-23T22:09:18.643Z,26.30
2022-10-23T22:12:05.736Z,25.70
2022-10-23T22:14:51.897Z,28.90
2022-10-23T22:17:38.467Z,23.90
2022-10-23T22:20:25.021Z,26.10
2022-10-23T22:23:11.431Z,24.80
2022-10-23T22:25:58.393Z,27.30
2022-10-23T22:28:44.716Z,25.50
2022-10-23T22:31:34.002Z,28.00
2022-10-23T22:34:48.400Z,28.10
2022-10-23T22:37:35.884Z,28.10
2022-10-23T22:40:22.332Z,27.40
2022-10-23T22:43:08.836Z,27.70
2022-10-23T22:46:05.348Z,29.10
2022-10-23T22:48:52.603Z,26.90
2022-10-23T22:51:39.458Z,28.40
2022-10-23T22:54:25.851Z,28.30
2022-10-23T22:57:12.110Z,23.60
2022-10-23T22:59:58.804Z,25.30
2022-10-23T23:02:45.046Z,26.60
2022-10-23T23:05:31.920Z,26.80
2022-10-23T23:08:20.592Z,26.90
2022-10-23T23:11:11.184Z,27.20
2022-10-23T23:13:57.520Z,28.80
2022-10-23T23:16:45.827Z,27.70
2022-10-23T23:19:32.222Z,28.20
2022-10-23T23:22:18.368Z,32.40
2022-10-23T23:25:05.541Z,31.70
2022-10-23T23:27:51.910Z,27.70
2022-10-23T23:30:40.259Z,30.00
2022-10-23T23:33:26.742Z,27.90
2022-10-23T23:36:17.845Z,30.20
2022-10-23T23:41:56.304Z,26.20
2022-10-23T23:44:50.391Z,28.70
2022-10-23T23:47:48.968Z,23.40
2022-10-23T23:50:35.579Z,23.80
2022-10-23T23:53:23.487Z,25.50
2022-10-23T23:56:10.612Z,24.00
2022-10-23T23:58:58.106Z,21.80
